TimeCDT,TemperatureF,Dew PointF,Humidity,Sea Level PressureIn,VisibilityMPH,Wind Direction,Wind SpeedMPH,Gust SpeedMPH,PrecipitationIn,Events,Conditions,WindDirDegrees,DateUTC
12:52 AM,44.1,41.0,89,30.19,10.0,West,3.5,-,N/A,,Clear,280,2011-10-02 05:52:00
1:52 AM,42.1,39.9,92,30.20,10.0,WNW,3.5,-,N/A,,Clear,290,2011-10-02 06:52:00
2:52 AM,41.0,39.0,93,30.19,6.0,West,4.6,-,N/A,,Clear,280,2011-10-02 07:52:00
3:52 AM,41.0,37.9,89,30.20,10.0,NW,4.6,-,N/A,,Clear,310,2011-10-02 08:52:00
4:52 AM,41.0,37.0,86,30.20,10.0,NW,3.5,-,N/A,,Clear,320,2011-10-02 09:52:00
5:52 AM,39.0,36.0,89,30.22,10.0,NNW,4.6,-,N/A,,Clear,340,2011-10-02 10:52:00
6:52 AM,39.0,36.0,89,30.23,10.0,NNW,5.8,-,N/A,,Clear,330,2011-10-02 11:52:00
7:52 AM,43.0,39.0,86,30.25,10.0,North,4.6,-,N/A,,Clear,350,2011-10-02 12:52:00
8:52 AM,48.0,41.0,77,30.27,10.0,NNE,6.9,-,N/A,,Clear,30,2011-10-02 13:52:00
10:52 AM,55.9,42.1,60,30.27,10.0,East,4.6,-,N/A,,Clear,80,2011-10-02 15:52:00
11:52 AM,60.1,39.9,47,30.25,10.0,Variable,5.8,-,N/A,,Clear,0,2011-10-02 16:52:00
12:52 PM,62.1,37.0,39,30.23,10.0,North,5.8,-,N/A,,Clear,10,2011-10-02 17:52:00
1:52 PM,64.9,39.0,39,30.21,10.0,Variable,4.6,-,N/A,,Clear,0,2011-10-02 18:52:00
2:52 PM,66.0,34.0,30,30.19,10.0,North,9.2,-,N/A,,Clear,10,2011-10-02 19:52:00
4:52 PM,64.9,35.1,33,30.17,10.0,North,9.2,-,N/A,,Clear,350,2011-10-02 21:52:00
5:52 PM,64.0,34.0,33,30.17,10.0,NW,8.1,-,N/A,,Clear,320,2011-10-02 22:52:00
6:52 PM,57.9,35.1,42,30.18,10.0,NNW,4.6,-,N/A,,Clear,340,2011-10-02 23:52:00
7:52 PM,54.0,37.9,55,30.19,10.0,Calm,Calm,-,N/A,,Clear,0,2011-10-03 00:52:00
8:52 PM,51.1,39.9,66,30.19,10.0,West,5.8,-,N/A,,Clear,270,2011-10-03 01:52:00
9:52 PM,50.0,41.0,71,30.19,10.0,Calm,Calm,-,N/A,,Clear,0,2011-10-03 02:52:00
10:52 PM,46.9,41.0,80,30.19,10.0,West,3.5,-,N/A,,Clear,280,2011-10-03 03:52:00